»·PEaware :: N102EF KRNO-KRDD

N102EF :: KRNO-KRDD

FLIGHT INFORMATION

Flight Status: Arrived
Operator: Privately registered:
United States
More flights under this callsign
Pilot: Ron R. (25532)
Aircraft: BEECH AIRCRAFT DUKE
(BE60)
More flights by this aircraft type
Origin: KRNO Reno/Tahoe Intl
United States
Destination: KRDD Redding Mun
United States
More flights between these airports :: More routes between these airports
Route: RBL
File this flight plan on PilotEdge
Remarks:
Altitude:
(Current/Filed)
140ft
Speed:
(Current/Filed)
240kts
Departed: 22-May-20 10:24 PM
Arrived: 22-May-20 11:41 PM
Distance/Time
Traveled:
131nm/1:17
Distance/Time
To Go:
Arrived

Flight Plot

Page will automatically refresh every two minutes.


Map Options




Map Legend


Flown Route
Filed Route
Departure Airport
Arrival Airport
Navaid (VOR, NDB)
Fix

Horizontal Profiles

Position Reports

Time Latitude Longitude Heading Altitude Ground
Speed
22-May-20 22:00 39.502042 -119.764292 269 4418ft 0kts
22-May-20 22:01 39.502042 -119.764292 269 4418ft 0kts
22-May-20 22:02 39.502042 -119.764292 269 4418ft 0kts
22-May-20 22:03 39.502042 -119.764292 269 4418ft 0kts
22-May-20 22:04 39.502042 -119.764292 269 4418ft 0kts
22-May-20 22:05 39.502042 -119.764292 269 4418ft 0kts
22-May-20 22:06 39.502042 -119.764295 269 4418ft 0kts
22-May-20 22:07 39.502042 -119.764298 269 4418ft 0kts
22-May-20 22:08 39.502042 -119.764301 269 4418ft 0kts
22-May-20 22:09 39.502042 -119.764303 269 4418ft 0kts
22-May-20 22:10 39.502042 -119.764306 269 4418ft 0kts
22-May-20 22:11 39.502042 -119.764309 269 4418ft 0kts
22-May-20 22:12 39.502041 -119.764312 269 4418ft 0kts
22-May-20 22:13 39.501897 -119.765466 296 4418ft 11kts
22-May-20 22:14 39.504816 -119.765720 0 4418ft 12kts
22-May-20 22:15 39.508264 -119.765705 0 4418ft 12kts
22-May-20 22:16 39.511630 -119.765176 0 4418ft 12kts
22-May-20 22:17 39.513528 -119.765950 271 4418ft 0kts
22-May-20 22:18 39.513528 -119.765953 271 4418ft 0kts
22-May-20 22:19 39.513528 -119.765956 271 4418ft 0kts
22-May-20 22:20 39.513528 -119.765959 271 4418ft 0kts
22-May-20 22:21 39.513528 -119.765962 271 4418ft 0kts
22-May-20 22:22 39.512868 -119.766745 179 4418ft 13kts
22-May-20 22:23 39.479696 -119.766984 178 5274ft 167kts
22-May-20 22:24 39.436042 -119.766192 179 7376ft 156kts
22-May-20 22:25 39.392187 -119.765706 180 9282ft 156kts
22-May-20 22:26 39.348159 -119.762554 176 11101ft 160kts
22-May-20 22:27 39.306922 -119.762941 226 12859ft 136kts
22-May-20 22:28 39.310997 -119.811091 297 14005ft 178kts
22-May-20 22:29 39.333988 -119.877689 296 13997ft 215kts
22-May-20 22:30 39.358113 -119.949285 296 14004ft 219kts
22-May-20 22:31 39.382521 -120.021886 296 14015ft 220kts
22-May-20 22:32 39.406951 -120.094672 296 14020ft 221kts
22-May-20 22:33 39.431404 -120.167624 296 14020ft 221kts
22-May-20 22:34 39.455981 -120.240966 296 14016ft 222kts
22-May-20 22:35 39.480578 -120.314752 296 14013ft 222kts
22-May-20 22:36 39.505058 -120.388363 296 14017ft 223kts
22-May-20 22:37 39.529511 -120.462084 296 14013ft 223kts
22-May-20 22:38 39.553976 -120.536033 296 14011ft 223kts
22-May-20 22:39 39.578423 -120.610137 296 14003ft 223kts
22-May-20 22:40 39.602912 -120.684562 296 14000ft 224kts
22-May-20 22:41 39.627310 -120.758889 296 13975ft 224kts
22-May-20 22:42 39.651642 -120.833227 296 13970ft 224kts
22-May-20 22:43 39.675961 -120.907699 295 13959ft 225kts
22-May-20 22:44 39.700412 -120.982805 295 13943ft 225kts
22-May-20 22:45 39.724725 -121.057686 295 13933ft 225kts
22-May-20 22:46 39.749011 -121.132685 295 13923ft 225kts
22-May-20 22:47 39.773273 -121.207804 295 13914ft 225kts
22-May-20 22:48 39.797508 -121.283058 295 13995ft 224kts
22-May-20 22:49 39.821677 -121.358275 295 13992ft 226kts
22-May-20 22:50 39.845890 -121.433863 295 13977ft 227kts
22-May-20 22:51 39.870074 -121.509574 296 13979ft 226kts
22-May-20 22:52 39.894301 -121.585616 295 13977ft 227kts
22-May-20 22:53 39.918445 -121.661611 296 13973ft 227kts
22-May-20 22:54 39.942583 -121.737801 295 13973ft 227kts
22-May-20 22:55 39.966947 -121.814826 295 13510ft 234kts
22-May-20 22:56 39.991438 -121.892381 295 12508ft 229kts
22-May-20 22:57 40.015780 -121.969916 295 11505ft 231kts
22-May-20 22:58 40.040207 -122.048035 294 10135ft 233kts
22-May-20 22:59 40.064252 -122.125099 294 8634ft 227kts
22-May-20 23:00 40.087891 -122.201043 295 7136ft 225kts
22-May-20 23:01 40.134520 -122.242088 358 5642ft 208kts
22-May-20 23:02 40.191005 -122.249170 355 4142ft 198kts
22-May-20 23:03 40.243002 -122.267509 343 2646ft 188kts
22-May-20 23:04 40.292384 -122.288110 346 2003ft 196kts
22-May-20 23:05 40.344209 -122.296032 357 1993ft 167kts
22-May-20 23:06 40.383939 -122.295551 3 1994ft 130kts
22-May-20 23:07 40.416737 -122.294624 359 2005ft 116kts
22-May-20 23:08 40.447288 -122.294688 0 1705ft 110kts
22-May-20 23:09 40.476847 -122.294806 359 1031ft 101kts
22-May-20 23:10 40.504456 -122.294904 0 520ft 93kts
22-May-20 23:11 40.540775 -122.294677 359 1527ft 153kts
22-May-20 23:12 40.585624 -122.299914 347 2460ft 171kts
22-May-20 23:14 40.632589 -122.324329 333 3739ft 182kts
22-May-20 23:15 40.667428 -122.376660 298 5078ft 200kts
22-May-20 23:16 40.678696 -122.451332 279 6003ft 219kts
22-May-20 23:17 40.694064 -122.527149 297 6134ft 214kts
22-May-20 23:18 40.725286 -122.592760 312 6212ft 208kts
22-May-20 23:19 40.765070 -122.648165 317 6005ft 207kts
22-May-20 23:20 40.814013 -122.681063 352 6096ft 195kts
22-May-20 23:21 40.867844 -122.681442 5 6222ft 194kts
22-May-20 23:22 40.920187 -122.676781 0 5175ft 177kts
22-May-20 23:23 40.961611 -122.683759 343 3306ft 141kts
22-May-20 23:24 40.998235 -122.694738 12 2695ft 157kts
22-May-20 23:25 41.046128 -122.695816 346 4329ft 168kts
22-May-20 23:26 41.065740 -122.654434 119 6441ft 215kts
22-May-20 23:27 41.011238 -122.618147 158 6317ft 225kts
22-May-20 23:28 40.954944 -122.583156 149 6048ft 222kts
22-May-20 23:29 40.902253 -122.546461 151 5964ft 209kts
22-May-20 23:30 40.850429 -122.511879 151 5835ft 208kts
22-May-20 23:31 40.798703 -122.477283 151 5716ft 208kts
22-May-20 23:31 40.756248 -122.448231 150 5575ft 204kts
22-May-20 23:33 40.697100 -122.407241 149 4951ft 204kts
22-May-20 23:33 40.655417 -122.378620 149 3986ft 203kts
22-May-20 23:34 40.607795 -122.346206 149 2750ft 163kts
22-May-20 23:36 40.560221 -122.332093 180 1864ft 137kts
22-May-20 23:36 40.529167 -122.332907 181 1677ft 133kts
22-May-20 23:38 40.486252 -122.334533 181 1494ft 131kts
22-May-20 23:38 40.464537 -122.318547 90 1246ft 111kts
22-May-20 23:39 40.481456 -122.295020 359 856ft 106kts
22-May-20 23:40 40.505305 -122.294936 359 505ft 31kts
22-May-20 23:41 40.508387 -122.297951 350 505ft 8kts
22-May-20 23:42 40.509991 -122.298752 355 505ft 4kts
22-May-20 23:43 40.509573 -122.298789 180 505ft 2kts
22-May-20 23:44 40.509561 -122.298789 181 505ft 0kts
22-May-20 23:45 40.509561 -122.298789 181 505ft 0kts

Navigation Log

Ident Type
Flight plan parsing failed, navigation log unavailable